createdAt,value
2019-04-27T00:04:19.393Z,100283.73
2019-04-27T00:08:38.719Z,100278.80
2019-04-27T00:12:42.948Z,100275.19
2019-04-27T00:17:21.140Z,100273.43
2019-04-27T00:21:32.829Z,100268.78
2019-04-27T00:25:40.978Z,100265.27
2019-04-27T00:29:48.749Z,100268.02
2019-04-27T00:33:57.355Z,100267.23
2019-04-27T00:38:30.236Z,100262.94
2019-04-27T00:42:38.184Z,100257.96
2019-04-27T00:46:46.002Z,100260.06
2019-04-27T00:50:53.814Z,100260.14
2019-04-27T00:55:03.105Z,100255.41
2019-04-27T00:59:29.030Z,100250.56
2019-04-27T01:03:40.577Z,100241.70
2019-04-27T01:07:48.934Z,100243.31
2019-04-27T01:11:57.237Z,100241.86
2019-04-27T01:16:05.322Z,100248.25
2019-04-27T01:20:14.006Z,100241.42
2019-04-27T01:24:21.877Z,100240.67
2019-04-27T01:28:34.611Z,100230.69
2019-04-27T01:32:42.428Z,100231.26
2019-04-27T01:36:50.751Z,100223.52
2019-04-27T01:41:00.603Z,100221.25
2019-04-27T01:45:08.907Z,100213.53
2019-04-27T01:49:19.267Z,100215.95
2019-04-27T01:53:28.575Z,100212.41
2019-04-27T01:57:38.636Z,100209.98
2019-04-27T02:02:04.658Z,100197.69
2019-04-27T02:06:12.747Z,100198.70
2019-04-27T02:10:20.988Z,100194.23
2019-04-27T02:14:29.030Z,100189.64
2019-04-27T02:18:38.256Z,100183.95
2019-04-27T02:22:48.542Z,100182.71
2019-04-27T02:26:56.427Z,100176.32
2019-04-27T02:31:26.587Z,100183.84
2019-04-27T02:35:34.479Z,100173.52
2019-04-27T02:39:43.432Z,100179.77
2019-04-27T02:44:09.556Z,100171.23
2019-04-27T02:48:16.660Z,100179.41
2019-04-27T02:52:35.855Z,100181.06
2019-04-27T02:56:43.969Z,100177.77
2019-04-27T03:00:51.634Z,100180.44
2019-04-27T03:05:00.793Z,100180.66
2019-04-27T03:09:10.427Z,100178.34
2019-04-27T03:13:30.373Z,100175.03
2019-04-27T03:17:52.998Z,100176.33
2019-04-27T03:22:22.157Z,100184.11
2019-04-27T03:26:50.058Z,100191.48
2019-04-27T03:31:02.356Z,100187.75
2019-04-27T03:35:12.970Z,100188.03
2019-04-27T03:39:19.916Z,100186.94
2019-04-27T03:43:30.207Z,100186.19
2019-04-27T03:47:40.479Z,100188.47
2019-04-27T03:52:03.029Z,100187.22
2019-04-27T03:56:25.781Z,100188.01
2019-04-27T04:00:34.019Z,100185.42
2019-04-27T04:04:41.933Z,100183.33
2019-04-27T04:08:52.962Z,100185.02
2019-04-27T04:13:10.508Z,100183.70
2019-04-27T04:17:20.374Z,100180.77
2019-04-27T04:21:29.829Z,100178.33
2019-04-27T04:25:40.948Z,100174.12
2019-04-27T04:29:49.280Z,100174.89
2019-04-27T04:33:59.793Z,100176.89
2019-04-27T04:38:10.440Z,100176.53
2019-04-27T04:42:36.280Z,100179.74
2019-04-27T04:46:53.204Z,100175.60
2019-04-27T04:51:00.671Z,100182.98
2019-04-27T04:55:10.156Z,100181.66
2019-04-27T04:59:20.182Z,100189.23
2019-04-27T05:03:28.669Z,100184.66
2019-04-27T05:07:38.622Z,100184.69
2019-04-27T05:11:46.494Z,100181.87
2019-04-27T05:15:54.726Z,100185.58
2019-04-27T05:20:06.137Z,100187.48
2019-04-27T05:24:14.118Z,100184.45
2019-04-27T05:28:21.947Z,100182.75
2019-04-27T05:32:30.469Z,100189.63
2019-04-27T05:36:43.551Z,100175.41
2019-04-27T05:40:49.718Z,100176.59
2019-04-27T05:45:34.343Z,100182.94
2019-04-27T05:49:44.689Z,100175.55
2019-04-27T05:53:52.924Z,100176.91
2019-04-27T05:58:00.730Z,100180.95
2019-04-27T06:02:09.361Z,100173.45
2019-04-27T06:06:19.729Z,100169.20
2019-04-27T06:10:29.692Z,100178.39
2019-04-27T06:14:39.250Z,100165.30
2019-04-27T06:18:47.076Z,100161.92
2019-04-27T06:22:54.771Z,100155.20
2019-04-27T06:27:02.967Z,100163.33
2019-04-27T06:31:11.119Z,100164.22
2019-04-27T06:35:19.012Z,100168.90
2019-04-27T06:39:26.810Z,100159.64
2019-04-27T06:43:34.739Z,100158.63
2019-04-27T06:47:42.540Z,100154.88
2019-04-27T06:51:50.365Z,100160.52
2019-04-27T06:55:58.661Z,100157.17
2019-04-27T07:00:09.077Z,100158.56
2019-04-27T07:04:19.415Z,100157.50
2019-04-27T07:08:28.662Z,100154.73
2019-04-27T07:12:38.726Z,100154.11
2019-04-27T07:16:46.842Z,100156.02
2019-04-27T07:20:55.257Z,100155.76
2019-04-27T07:25:03.078Z,100156.48
2019-04-27T07:29:11.196Z,100156.48
2019-04-27T07:33:19.248Z,100158.59
2019-04-27T07:37:26.954Z,100149.38
2019-04-27T07:41:34.730Z,100151.05
2019-04-27T07:45:43.035Z,100156.77
2019-04-27T07:49:50.843Z,100152.75
2019-04-27T07:53:58.979Z,100152.14
2019-04-27T07:58:08.782Z,100147.83
2019-04-27T08:02:16.840Z,100148.11
2019-04-27T08:06:24.745Z,100139.86
2019-04-27T08:10:32.598Z,100137.45
2019-04-27T08:14:40.482Z,100137.45
2019-04-27T08:18:49.641Z,100131.74
2019-04-27T08:22:59.842Z,100123.61
2019-04-27T08:27:36.994Z,100143.83
2019-04-27T08:31:49.996Z,100143.83
2019-04-27T08:35:59.055Z,100123.38
2019-04-27T08:40:09.316Z,100102.03
2019-04-27T08:44:17.462Z,100102.03
2019-04-27T08:48:34.774Z,100117.83
2019-04-27T08:52:34.777Z,100109.67
2019-04-27T08:56:42.707Z,100107.30
2019-04-27T09:00:50.315Z,100107.85
2019-04-27T09:04:59.654Z,100107.75
2019-04-27T09:09:12.843Z,100106.11
2019-04-27T09:13:29.949Z,100099.49
2019-04-27T09:17:46.164Z,100089.34
2019-04-27T09:22:15.271Z,100082.88
2019-04-27T09:26:14.341Z,100080.83
2019-04-27T09:30:22.244Z,100080.02
2019-04-27T09:34:30.470Z,100082.09
2019-04-27T09:38:38.684Z,100068.80
2019-04-27T09:42:46.512Z,100059.96
2019-04-27T09:46:56.049Z,100045.88
2019-04-27T09:51:06.457Z,100050.44
2019-04-27T09:55:14.114Z,100060.92
2019-04-27T09:59:22.069Z,100044.37
2019-04-27T10:03:29.853Z,100030.98
2019-04-27T10:07:37.471Z,100031.33
2019-04-27T10:11:45.281Z,100021.36
2019-04-27T10:15:53.181Z,100010.33
2019-04-27T10:20:01.007Z,100012.80
2019-04-27T10:24:08.910Z,100009.11
2019-04-27T10:28:16.624Z,100009.04
2019-04-27T10:32:26.061Z,100005.95
2019-04-27T10:36:40.328Z,100001.16
2019-04-27T10:40:48.132Z,100009.72
2019-04-27T10:44:56.252Z,99991.92
2019-04-27T10:49:05.884Z,99990.42
2019-04-27T10:53:13.727Z,99989.40
2019-04-27T10:57:22.048Z,99994.36
2019-04-27T11:01:30.831Z,99995.13
2019-04-27T11:06:01.071Z,99989.81
2019-04-27T11:10:10.478Z,99990.43
2019-04-27T11:14:18.043Z,99988.57
2019-04-27T11:18:25.923Z,99981.04
2019-04-27T11:22:34.106Z,99978.73
2019-04-27T11:26:41.880Z,99974.53
2019-04-27T11:30:49.793Z,99965.75
2019-04-27T11:35:16.569Z,99967.81
2019-04-27T11:39:26.022Z,99973.45
2019-04-27T11:43:33.925Z,99968.58
2019-04-27T11:47:41.606Z,99971.69
2019-04-27T11:51:49.225Z,99967.78
2019-04-27T11:55:57.136Z,99964.20
2019-04-27T12:00:07.894Z,99940.66
2019-04-27T12:04:16.137Z,99940.66
2019-04-27T12:08:26.410Z,99943.20
2019-04-27T12:12:36.264Z,99929.05
2019-04-27T12:16:43.973Z,99913.52
2019-04-27T12:20:52.177Z,99904.30
2019-04-27T12:24:59.892Z,99901.52
2019-04-27T12:29:11.128Z,99902.66
2019-04-27T12:33:19.707Z,99881.83
2019-04-27T12:37:27.394Z,99878.93
2019-04-27T12:41:37.305Z,99875.19
2019-04-27T12:45:46.020Z,99866.25
2019-04-27T12:49:53.851Z,99855.34
2019-04-27T12:54:33.024Z,99855.34
2019-04-27T12:58:48.443Z,99853.83
2019-04-27T13:02:57.715Z,99846.81
2019-04-27T13:07:05.992Z,99843.33
2019-04-27T13:11:13.826Z,99843.33
2019-04-27T13:15:21.946Z,99846.41
2019-04-27T13:19:31.182Z,99831.77
2019-04-27T13:23:38.998Z,99820.91
2019-04-27T13:27:47.916Z,99811.86
2019-04-27T13:31:57.743Z,99817.92
2019-04-27T13:36:07.576Z,99814.96
2019-04-27T13:40:17.197Z,99785.28
2019-04-27T13:44:26.151Z,99790.78
2019-04-27T13:48:52.866Z,99790.78
2019-04-27T13:53:01.027Z,99783.02
2019-04-27T13:57:08.929Z,99785.70
2019-04-27T14:01:17.285Z,99784.74
2019-04-27T14:05:24.764Z,99769.33
2019-04-27T14:09:32.755Z,99769.33
2019-04-27T14:13:40.888Z,99769.48
2019-04-27T14:17:50.026Z,99772.97
2019-04-27T14:21:59.067Z,99769.11
2019-04-27T14:26:08.787Z,99761.62
2019-04-27T14:30:18.492Z,99759.05
2019-04-27T14:34:26.166Z,99762.20
2019-04-27T14:38:34.127Z,99762.11
2019-04-27T14:42:42.207Z,99764.16
2019-04-27T14:46:51.197Z,99762.70
2019-04-27T14:50:59.210Z,99758.00
2019-04-27T14:55:08.586Z,99758.03
2019-04-27T14:59:16.398Z,99754.51
2019-04-27T15:03:24.230Z,99749.39
2019-04-27T15:07:32.043Z,99744.04
2019-04-27T15:11:40.040Z,99730.48
2019-04-27T15:15:47.579Z,99724.01
2019-04-27T15:20:00.900Z,99729.64
2019-04-27T15:24:09.991Z,99726.72
2019-04-27T15:28:22.746Z,99723.86
2019-04-27T15:32:42.368Z,99721.33
2019-04-27T15:37:00.100Z,99718.53
2019-04-27T15:41:15.700Z,99717.59
2019-04-27T15:45:24.479Z,99716.87
2019-04-27T15:49:32.724Z,99728.82
2019-04-27T15:53:41.811Z,99726.22
2019-04-27T15:57:50.533Z,99721.48
2019-04-27T16:01:58.616Z,99711.18
2019-04-27T16:06:08.214Z,99702.97
2019-04-27T16:10:17.708Z,99702.49
2019-04-27T16:14:26.138Z,99703.37
2019-04-27T16:18:34.056Z,99702.73
2019-04-27T16:22:42.299Z,99699.14
2019-04-27T16:26:52.300Z,99696.91
2019-04-27T16:30:59.739Z,99702.95
2019-04-27T16:35:13.667Z,99702.63
2019-04-27T16:39:20.379Z,99710.52
2019-04-27T16:43:32.524Z,99717.41
2019-04-27T16:47:38.394Z,99725.36
2019-04-27T16:51:46.178Z,99720.70
2019-04-27T16:56:11.371Z,99722.41
2019-04-27T17:00:18.505Z,99731.88
2019-04-27T17:04:26.130Z,99727.16
2019-04-27T17:08:34.014Z,99724.69
2019-04-27T17:12:45.917Z,99724.03
2019-04-27T17:17:03.653Z,99742.81
2019-04-27T17:21:19.038Z,99737.77
2019-04-27T17:25:23.423Z,99738.16
2019-04-27T17:29:34.218Z,99741.14
2019-04-27T17:33:48.719Z,99753.99
2019-04-27T17:37:59.373Z,99761.54
2019-04-27T17:42:08.445Z,99762.57
2019-04-27T17:46:16.750Z,99767.59
2019-04-27T17:50:26.106Z,99768.22
2019-04-27T17:54:34.734Z,99776.22
2019-04-27T17:58:42.636Z,99780.48
2019-04-27T18:02:50.440Z,99797.21
2019-04-27T18:07:02.085Z,99804.73
2019-04-27T18:11:08.769Z,99803.09
2019-04-27T18:15:16.850Z,99806.25
2019-04-27T18:19:36.309Z,99807.41
2019-04-27T18:23:52.276Z,99799.06
2019-04-27T18:28:14.834Z,99802.31
2019-04-27T18:32:23.478Z,99799.91
2019-04-27T18:36:31.443Z,99795.82
2019-04-27T18:40:40.096Z,99799.55
2019-04-27T18:44:48.572Z,99803.67
2019-04-27T18:49:15.265Z,99798.95
2019-04-27T18:53:26.330Z,99792.09
2019-04-27T18:57:34.632Z,99800.09
2019-04-27T19:01:43.386Z,99789.13
2019-04-27T19:05:51.409Z,99783.36
2019-04-27T19:09:59.302Z,99787.84
2019-04-27T19:14:08.309Z,99786.33
2019-04-27T19:18:18.690Z,99780.94
2019-04-27T19:22:27.967Z,99786.58
2019-04-27T19:26:55.137Z,99788.73
2019-04-27T19:31:08.274Z,99788.79
2019-04-27T19:35:16.057Z,99788.59
2019-04-27T19:39:24.573Z,99783.08
2019-04-27T19:43:32.448Z,99782.27
2019-04-27T19:47:40.135Z,99776.94
2019-04-27T19:51:48.647Z,99778.39
2019-04-27T19:56:02.390Z,99780.14
2019-04-27T20:00:19.626Z,99774.56
2019-04-27T20:04:32.255Z,99775.78
2019-04-27T20:08:41.801Z,99766.91
2019-04-27T20:12:50.957Z,99762.44
2019-04-27T20:16:59.133Z,99755.80
2019-04-27T20:21:06.729Z,99761.11
2019-04-27T20:25:14.667Z,99755.38
2019-04-27T20:29:22.566Z,99759.56
2019-04-27T20:33:31.150Z,99769.73
2019-04-27T20:37:41.444Z,99772.27
2019-04-27T20:41:50.754Z,99777.20
2019-04-27T20:46:00.758Z,99779.26
2019-04-27T20:50:08.981Z,99783.39
2019-04-27T20:54:17.195Z,99785.26
2019-04-27T20:58:25.433Z,99791.80
2019-04-27T21:03:07.922Z,99792.28
2019-04-27T21:07:15.400Z,99771.73
2019-04-27T21:11:22.978Z,99777.57
2019-04-27T21:15:31.525Z,99771.99
2019-04-27T21:19:41.356Z,99770.94
2019-04-27T21:23:51.363Z,99774.59
2019-04-27T21:27:58.726Z,99785.16
2019-04-27T21:32:07.909Z,99786.28
2019-04-27T21:36:17.506Z,99795.94
2019-04-27T21:40:25.225Z,99782.68
2019-04-27T21:44:34.143Z,99777.53
2019-04-27T21:48:42.161Z,99774.22
2019-04-27T21:53:00.607Z,99761.05
2019-04-27T21:57:11.000Z,99748.54
2019-04-27T22:01:31.806Z,99746.95
2019-04-27T22:05:41.736Z,99740.95
2019-04-27T22:09:51.563Z,99734.34
2019-04-27T22:14:01.205Z,99709.30
2019-04-27T22:18:08.982Z,99706.17
2019-04-27T22:22:29.269Z,99703.60
2019-04-27T22:26:37.611Z,99696.28
2019-04-27T22:30:45.413Z,99686.55
2019-04-27T22:34:54.044Z,99686.95
2019-04-27T22:39:11.905Z,99687.45
2019-04-27T22:43:38.480Z,99682.45
2019-04-27T22:47:46.140Z,99659.86
2019-04-27T22:51:54.072Z,99676.91
2019-04-27T22:56:16.962Z,99672.28
2019-04-27T23:00:56.047Z,99676.20
2019-04-27T23:05:05.730Z,99676.72
2019-04-27T23:09:14.342Z,99676.51
2019-04-27T23:13:22.155Z,99668.27
2019-04-27T23:17:58.885Z,99653.02
2019-04-27T23:22:07.028Z,99648.55
2019-04-27T23:26:14.921Z,99644.32
2019-04-27T23:30:28.429Z,99636.06
2019-04-27T23:34:36.150Z,99631.28
2019-04-27T23:38:43.725Z,99623.94
2019-04-27T23:42:51.712Z,99621.09
2019-04-27T23:47:00.468Z,99606.82
2019-04-27T23:51:20.484Z,99605.64
2019-04-27T23:55:31.826Z,99613.03
2019-04-27T23:59:41.649Z,99619.53
